<?xml version="1.0" encoding="UTF-8" standalone="no" ?>
<gpx xmlns="http://www.topografix.com/GPX/1/1" xmlns:xsi="http://www.w3.org/2001/XMLSchema-instance" xsi:schemaLocation="http://www.topografix.com/GPX/1/1 http://www.topografix.com/GPX/1/1/gpx.xsd" version="1.1" creator="VisuGPX - https://www.visugpx.com">
  <metadata>
    <name>De l'Altschlossfelsen à l'Eulenfels</name>
  </metadata>
  <wpt lat="49.10022" lon="7.51598">
    <ele>305</ele>
    <name><![CDATA[Point de passage 1]]></name>
  </wpt>
  <wpt lat="49.10022" lon="7.51598">
    <ele>305</ele>
    <name><![CDATA[Point de passage 19]]></name>
  </wpt>
  <trk>
    <name><![CDATA[De l'Altschlossfelsen à l'Eulenfels]]></name>
    <extensions>
      <line xmlns="http://www.topografix.com/GPX/gpx_style/0/2">
        <color>0000FF</color>
        <width>4</width>
      </line>
    </extensions>
    <trkseg>
      <trkpt lat="49.10022" lon="7.51598">
        <ele>305</ele>
        <time>2020-08-05T10:22:13.000Z</time>
      </trkpt>
      <trkpt lat="49.09999" lon="7.51668">
        <ele>306</ele>
        <time>2020-08-05T10:21:14.000Z</time>
      </trkpt>
      <trkpt lat="49.09994" lon="7.51729">
        <ele>307</ele>
        <time>2020-08-05T10:20:28.000Z</time>
      </trkpt>
      <trkpt lat="49.10003" lon="7.51809">
        <ele>309</ele>
        <time>2020-08-05T10:19:27.000Z</time>
      </trkpt>
      <trkpt lat="49.10025" lon="7.52173">
        <ele>319</ele>
        <time>2020-08-05T10:14:53.000Z</time>
      </trkpt>
      <trkpt lat="49.10055" lon="7.52469">
        <ele>325</ele>
        <time>2020-08-05T10:11:09.000Z</time>
      </trkpt>
      <trkpt lat="49.10084" lon="7.52631">
        <ele>329</ele>
        <time>2020-08-05T10:09:03.000Z</time>
      </trkpt>
      <trkpt lat="49.10099" lon="7.52684">
        <ele>331</ele>
        <time>2020-08-05T10:08:19.000Z</time>
      </trkpt>
      <trkpt lat="49.10164" lon="7.52857">
        <ele>336</ele>
        <time>2020-08-05T10:05:49.000Z</time>
      </trkpt>
      <trkpt lat="49.10189" lon="7.52891">
        <ele>335</ele>
        <time>2020-08-05T10:05:00.000Z</time>
      </trkpt>
      <trkpt lat="49.10214" lon="7.52948">
        <ele>333</ele>
        <time>2020-08-05T10:03:48.000Z</time>
      </trkpt>
      <trkpt lat="49.10189" lon="7.52962">
        <ele>331</ele>
        <time>2020-08-05T10:02:47.000Z</time>
      </trkpt>
      <trkpt lat="49.10077" lon="7.52933">
        <ele>339</ele>
        <time>2020-08-05T10:00:38.000Z</time>
      </trkpt>
      <trkpt lat="49.09963" lon="7.52921">
        <ele>339</ele>
        <time>2020-08-05T09:58:27.000Z</time>
      </trkpt>
      <trkpt lat="49.09899" lon="7.52907">
        <ele>338</ele>
        <time>2020-08-05T09:57:02.000Z</time>
      </trkpt>
      <trkpt lat="49.09817" lon="7.52905">
        <ele>347</ele>
        <time>2020-08-05T09:55:28.000Z</time>
      </trkpt>
      <trkpt lat="49.09712" lon="7.52887">
        <ele>371</ele>
        <time>2020-08-05T09:53:27.000Z</time>
      </trkpt>
      <trkpt lat="49.09725" lon="7.5292">
        <ele>378</ele>
        <time>2020-08-05T09:52:59.000Z</time>
      </trkpt>
      <trkpt lat="49.09725" lon="7.52971">
        <ele>379</ele>
        <time>2020-08-05T09:52:20.000Z</time>
      </trkpt>
      <trkpt lat="49.0973" lon="7.53007">
        <ele>385</ele>
        <time>2020-08-05T09:51:52.000Z</time>
      </trkpt>
      <trkpt lat="49.09747" lon="7.53058">
        <ele>376</ele>
        <time>2020-08-05T09:49:37.000Z</time>
      </trkpt>
      <trkpt lat="49.09749" lon="7.53079">
        <ele>373</ele>
        <time>2020-08-05T09:48:50.000Z</time>
      </trkpt>
      <trkpt lat="49.09761" lon="7.53103">
        <ele>388</ele>
        <time>2020-08-05T09:48:27.000Z</time>
      </trkpt>
      <trkpt lat="49.09773" lon="7.53143">
        <ele>382</ele>
        <time>2020-08-05T09:46:53.000Z</time>
      </trkpt>
      <trkpt lat="49.09783" lon="7.53159">
        <ele>373</ele>
        <time>2020-08-05T09:45:04.000Z</time>
      </trkpt>
      <trkpt lat="49.09795" lon="7.53165">
        <ele>381</ele>
        <time>2020-08-05T09:44:50.000Z</time>
      </trkpt>
      <trkpt lat="49.09811" lon="7.53182">
        <ele>380</ele>
        <time>2020-08-05T09:44:17.000Z</time>
      </trkpt>
      <trkpt lat="49.09845" lon="7.53234">
        <ele>386</ele>
        <time>2020-08-05T09:43:23.000Z</time>
      </trkpt>
      <trkpt lat="49.0986" lon="7.5327">
        <ele>382</ele>
        <time>2020-08-05T09:42:10.000Z</time>
      </trkpt>
      <trkpt lat="49.09913" lon="7.53351">
        <ele>381</ele>
        <time>2020-08-05T09:40:34.000Z</time>
      </trkpt>
      <trkpt lat="49.09936" lon="7.53382">
        <ele>389</ele>
        <time>2020-08-05T09:39:59.000Z</time>
      </trkpt>
      <trkpt lat="49.09943" lon="7.53407">
        <ele>382</ele>
        <time>2020-08-05T09:38:27.000Z</time>
      </trkpt>
      <trkpt lat="49.09958" lon="7.53441">
        <ele>378</ele>
        <time>2020-08-05T09:37:15.000Z</time>
      </trkpt>
      <trkpt lat="49.09971" lon="7.53462">
        <ele>379</ele>
        <time>2020-08-05T09:36:52.000Z</time>
      </trkpt>
      <trkpt lat="49.10006" lon="7.53504">
        <ele>382</ele>
        <time>2020-08-05T09:36:02.000Z</time>
      </trkpt>
      <trkpt lat="49.10017" lon="7.5351">
        <ele>382</ele>
        <time>2020-08-05T09:35:49.000Z</time>
      </trkpt>
      <trkpt lat="49.10028" lon="7.53511">
        <ele>381</ele>
        <time>2020-08-05T09:35:26.000Z</time>
      </trkpt>
      <trkpt lat="49.10051" lon="7.53484">
        <ele>380</ele>
        <time>2020-08-05T09:34:42.000Z</time>
      </trkpt>
      <trkpt lat="49.10073" lon="7.53475">
        <ele>380</ele>
        <time>2020-08-05T09:34:17.000Z</time>
      </trkpt>
      <trkpt lat="49.10099" lon="7.53486">
        <ele>385</ele>
        <time>2020-08-05T09:33:46.000Z</time>
      </trkpt>
      <trkpt lat="49.10124" lon="7.53509">
        <ele>385</ele>
        <time>2020-08-05T09:33:13.000Z</time>
      </trkpt>
      <trkpt lat="49.10144" lon="7.53536">
        <ele>383</ele>
        <time>2020-08-05T09:32:22.000Z</time>
      </trkpt>
      <trkpt lat="49.10192" lon="7.53635">
        <ele>381</ele>
        <time>2020-08-05T09:32:21.000Z</time>
      </trkpt>
      <trkpt lat="49.10217" lon="7.5372">
        <ele>378</ele>
        <time>2020-08-05T09:30:39.000Z</time>
      </trkpt>
      <trkpt lat="49.10234" lon="7.53719">
        <ele>378</ele>
        <time>2020-08-05T09:30:09.000Z</time>
      </trkpt>
      <trkpt lat="49.10256" lon="7.53691">
        <ele>381</ele>
        <time>2020-08-05T09:29:36.000Z</time>
      </trkpt>
      <trkpt lat="49.10287" lon="7.53698">
        <ele>376</ele>
        <time>2020-08-05T09:29:36.000Z</time>
      </trkpt>
      <trkpt lat="49.10327" lon="7.53729">
        <ele>384</ele>
        <time>2020-08-05T09:29:36.000Z</time>
      </trkpt>
      <trkpt lat="49.10339" lon="7.53748">
        <ele>376</ele>
        <time>2020-08-05T09:30:11.000Z</time>
      </trkpt>
      <trkpt lat="49.10347" lon="7.53772">
        <ele>376</ele>
        <time>2020-08-05T09:29:51.000Z</time>
      </trkpt>
      <trkpt lat="49.10356" lon="7.53786">
        <ele>380</ele>
        <time>2020-08-05T09:29:36.000Z</time>
      </trkpt>
      <trkpt lat="49.10385" lon="7.53866">
        <ele>371</ele>
        <time>2020-08-05T09:29:48.000Z</time>
      </trkpt>
      <trkpt lat="49.10403" lon="7.53901">
        <ele>382</ele>
        <time>2020-08-05T09:31:32.000Z</time>
      </trkpt>
      <trkpt lat="49.10412" lon="7.53914">
        <ele>379</ele>
        <time>2020-08-05T09:30:47.000Z</time>
      </trkpt>
      <trkpt lat="49.10413" lon="7.53944">
        <ele>370</ele>
        <time>2020-08-05T09:32:19.000Z</time>
      </trkpt>
      <trkpt lat="49.10424" lon="7.53957">
        <ele>372</ele>
        <time>2020-08-05T09:32:02.000Z</time>
      </trkpt>
      <trkpt lat="49.1043" lon="7.53969">
        <ele>378</ele>
        <time>2020-08-05T09:31:52.000Z</time>
      </trkpt>
      <trkpt lat="49.10435" lon="7.53974">
        <ele>371</ele>
        <time>2020-08-05T09:30:33.000Z</time>
      </trkpt>
      <trkpt lat="49.1044" lon="7.53985">
        <ele>369</ele>
        <time>2020-08-05T09:30:02.000Z</time>
      </trkpt>
      <trkpt lat="49.10436" lon="7.54004">
        <ele>374</ele>
        <time>2020-08-05T09:29:47.000Z</time>
      </trkpt>
      <trkpt lat="49.10439" lon="7.53992">
        <ele>371</ele>
        <time>2020-08-05T09:29:06.000Z</time>
      </trkpt>
      <trkpt lat="49.10444" lon="7.53989">
        <ele>366</ele>
        <time>2020-08-05T09:28:08.000Z</time>
      </trkpt>
      <trkpt lat="49.10433" lon="7.53938">
        <ele>369</ele>
        <time>2020-08-05T09:27:28.000Z</time>
      </trkpt>
      <trkpt lat="49.10441" lon="7.53945">
        <ele>366</ele>
        <time>2020-08-05T09:29:15.000Z</time>
      </trkpt>
      <trkpt lat="49.1045" lon="7.53971">
        <ele>361</ele>
        <time>2020-08-05T09:28:01.000Z</time>
      </trkpt>
      <trkpt lat="49.10452" lon="7.54016">
        <ele>363</ele>
        <time>2020-08-05T09:27:28.000Z</time>
      </trkpt>
      <trkpt lat="49.10504" lon="7.54192">
        <ele>340</ele>
        <time>2020-08-05T08:07:21.000Z</time>
      </trkpt>
      <trkpt lat="49.10518" lon="7.54163">
        <ele>339</ele>
        <time>2020-08-05T08:06:43.000Z</time>
      </trkpt>
      <trkpt lat="49.10528" lon="7.54106">
        <ele>338</ele>
        <time>2020-08-05T08:05:48.000Z</time>
      </trkpt>
      <trkpt lat="49.10532" lon="7.54013">
        <ele>338</ele>
        <time>2020-08-05T08:04:39.000Z</time>
      </trkpt>
      <trkpt lat="49.10546" lon="7.53954">
        <ele>340</ele>
        <time>2020-08-05T08:03:52.000Z</time>
      </trkpt>
      <trkpt lat="49.10584" lon="7.53886">
        <ele>341</ele>
        <time>2020-08-05T08:02:45.000Z</time>
      </trkpt>
      <trkpt lat="49.10597" lon="7.53872">
        <ele>342</ele>
        <time>2020-08-05T08:02:27.000Z</time>
      </trkpt>
      <trkpt lat="49.10613" lon="7.53865">
        <ele>342</ele>
        <time>2020-08-05T08:02:08.000Z</time>
      </trkpt>
      <trkpt lat="49.1072" lon="7.5411">
        <ele>353</ele>
        <time>2020-08-05T08:20:09.000Z</time>
      </trkpt>
      <trkpt lat="49.10746" lon="7.54189">
        <ele>358</ele>
        <time>2020-08-05T08:19:02.000Z</time>
      </trkpt>
      <trkpt lat="49.10787" lon="7.5428">
        <ele>361</ele>
        <time>2020-08-05T08:17:39.000Z</time>
      </trkpt>
      <trkpt lat="49.10805" lon="7.54334">
        <ele>362</ele>
        <time>2020-08-05T08:16:54.000Z</time>
      </trkpt>
      <trkpt lat="49.10817" lon="7.5435">
        <ele>363</ele>
        <time>2020-08-05T08:16:35.000Z</time>
      </trkpt>
      <trkpt lat="49.10834" lon="7.54356">
        <ele>364</ele>
        <time>2020-08-05T08:16:16.000Z</time>
      </trkpt>
      <trkpt lat="49.10848" lon="7.5434">
        <ele>364</ele>
        <time>2020-08-05T08:15:56.000Z</time>
      </trkpt>
      <trkpt lat="49.10856" lon="7.54328">
        <ele>361</ele>
        <time>2020-08-05T08:15:11.000Z</time>
      </trkpt>
      <trkpt lat="49.10873" lon="7.54244">
        <ele>359</ele>
        <time>2020-08-05T08:13:45.000Z</time>
      </trkpt>
      <trkpt lat="49.10905" lon="7.54207">
        <ele>358</ele>
        <time>2020-08-05T08:12:49.000Z</time>
      </trkpt>
      <trkpt lat="49.10927" lon="7.54201">
        <ele>357</ele>
        <time>2020-08-05T08:12:13.000Z</time>
      </trkpt>
      <trkpt lat="49.10961" lon="7.54219">
        <ele>357</ele>
        <time>2020-08-05T08:11:32.000Z</time>
      </trkpt>
      <trkpt lat="49.1098" lon="7.54239">
        <ele>357</ele>
        <time>2020-08-05T08:11:06.000Z</time>
      </trkpt>
      <trkpt lat="49.1103" lon="7.54351">
        <ele>355</ele>
        <time>2020-08-05T08:09:04.000Z</time>
      </trkpt>
      <trkpt lat="49.11041" lon="7.54406">
        <ele>354</ele>
        <time>2020-08-05T08:08:11.000Z</time>
      </trkpt>
      <trkpt lat="49.1105" lon="7.5449">
        <ele>354</ele>
        <time>2020-08-05T08:07:07.000Z</time>
      </trkpt>
      <trkpt lat="49.11058" lon="7.54632">
        <ele>347</ele>
        <time>2020-08-05T08:04:08.000Z</time>
      </trkpt>
      <trkpt lat="49.11058" lon="7.54737">
        <ele>343</ele>
        <time>2020-08-05T08:02:08.000Z</time>
      </trkpt>
      <trkpt lat="49.11047" lon="7.54788">
        <ele>342</ele>
        <time>2020-08-05T11:02:15.000Z</time>
      </trkpt>
      <trkpt lat="49.1104" lon="7.54847">
        <ele>339</ele>
        <time>2020-08-05T11:00:59.000Z</time>
      </trkpt>
      <trkpt lat="49.11039" lon="7.54895">
        <ele>339</ele>
        <time>2020-08-05T11:00:23.000Z</time>
      </trkpt>
      <trkpt lat="49.11026" lon="7.54951">
        <ele>335</ele>
        <time>2020-08-05T10:58:57.000Z</time>
      </trkpt>
      <trkpt lat="49.11025" lon="7.54969">
        <ele>335</ele>
        <time>2020-08-05T10:58:46.000Z</time>
      </trkpt>
      <trkpt lat="49.11025" lon="7.54969">
        <ele>335</ele>
        <time>2020-08-05T10:58:46.000Z</time>
      </trkpt>
      <trkpt lat="49.11026" lon="7.55004">
        <ele>336</ele>
        <time>2020-08-05T10:58:20.000Z</time>
      </trkpt>
      <trkpt lat="49.11026" lon="7.55004">
        <ele>336</ele>
        <time>2020-08-05T10:58:20.000Z</time>
      </trkpt>
      <trkpt lat="49.11017" lon="7.55047">
        <ele>339</ele>
        <time>2020-08-05T10:57:46.000Z</time>
      </trkpt>
      <trkpt lat="49.11018" lon="7.55048">
        <ele>339</ele>
        <time>2020-08-05T10:57:44.000Z</time>
      </trkpt>
      <trkpt lat="49.10992" lon="7.55135">
        <ele>346</ele>
        <time>2020-08-05T10:56:31.000Z</time>
      </trkpt>
      <trkpt lat="49.10991" lon="7.55148">
        <ele>347</ele>
        <time>2020-08-05T10:55:31.000Z</time>
      </trkpt>
      <trkpt lat="49.10991" lon="7.55148">
        <ele>347</ele>
        <time>2020-08-05T10:55:31.000Z</time>
      </trkpt>
      <trkpt lat="49.10991" lon="7.55173">
        <ele>350</ele>
        <time>2020-08-05T10:55:12.000Z</time>
      </trkpt>
      <trkpt lat="49.10991" lon="7.55173">
        <ele>350</ele>
        <time>2020-08-05T10:55:12.000Z</time>
      </trkpt>
      <trkpt lat="49.10996" lon="7.55196">
        <ele>352</ele>
        <time>2020-08-05T10:54:54.000Z</time>
      </trkpt>
      <trkpt lat="49.10996" lon="7.55196">
        <ele>352</ele>
        <time>2020-08-05T10:54:54.000Z</time>
      </trkpt>
      <trkpt lat="49.10996" lon="7.55196">
        <ele>352</ele>
        <time>2020-08-05T10:54:54.000Z</time>
      </trkpt>
      <trkpt lat="49.11001" lon="7.55209">
        <ele>353</ele>
        <time>2020-08-05T10:54:43.000Z</time>
      </trkpt>
      <trkpt lat="49.11006" lon="7.55198">
        <ele>354</ele>
        <time>2020-08-05T10:54:33.000Z</time>
      </trkpt>
      <trkpt lat="49.11009" lon="7.55168">
        <ele>355</ele>
        <time>2020-08-05T10:54:10.000Z</time>
      </trkpt>
      <trkpt lat="49.11009" lon="7.55168">
        <ele>355</ele>
        <time>2020-08-05T10:54:10.000Z</time>
      </trkpt>
      <trkpt lat="49.11006" lon="7.55198">
        <ele>354</ele>
        <time>2020-08-05T10:53:37.000Z</time>
      </trkpt>
      <trkpt lat="49.11001" lon="7.55209">
        <ele>353</ele>
        <time>2020-08-05T10:53:17.000Z</time>
      </trkpt>
      <trkpt lat="49.11002" lon="7.55217">
        <ele>354</ele>
        <time>2020-08-05T10:53:11.000Z</time>
      </trkpt>
      <trkpt lat="49.10977" lon="7.55265">
        <ele>359</ele>
        <time>2020-08-05T10:52:25.000Z</time>
      </trkpt>
      <trkpt lat="49.10977" lon="7.55265">
        <ele>359</ele>
        <time>2020-08-05T10:52:25.000Z</time>
      </trkpt>
      <trkpt lat="49.10966" lon="7.5529">
        <ele>364</ele>
        <time>2020-08-05T10:52:03.000Z</time>
      </trkpt>
      <trkpt lat="49.10939" lon="7.55334">
        <ele>368</ele>
        <time>2020-08-05T10:51:18.000Z</time>
      </trkpt>
      <trkpt lat="49.10908" lon="7.55375">
        <ele>366</ele>
        <time>2020-08-05T10:50:11.000Z</time>
      </trkpt>
      <trkpt lat="49.10899" lon="7.5538">
        <ele>365</ele>
        <time>2020-08-05T10:49:50.000Z</time>
      </trkpt>
      <trkpt lat="49.10855" lon="7.55438">
        <ele>365</ele>
        <time>2020-08-05T10:48:43.000Z</time>
      </trkpt>
      <trkpt lat="49.10823" lon="7.55535">
        <ele>361</ele>
        <time>2020-08-05T10:46:41.000Z</time>
      </trkpt>
      <trkpt lat="49.10805" lon="7.55598">
        <ele>357</ele>
        <time>2020-08-05T10:45:08.000Z</time>
      </trkpt>
      <trkpt lat="49.10796" lon="7.55643">
        <ele>356</ele>
        <time>2020-08-05T10:44:23.000Z</time>
      </trkpt>
      <trkpt lat="49.10794" lon="7.55642">
        <ele>355</ele>
        <time>2020-08-05T10:44:10.000Z</time>
      </trkpt>
      <trkpt lat="49.10796" lon="7.55707">
        <ele>352</ele>
        <time>2020-08-05T10:42:50.000Z</time>
      </trkpt>
      <trkpt lat="49.10822" lon="7.55818">
        <ele>348</ele>
        <time>2020-08-05T10:40:40.000Z</time>
      </trkpt>
      <trkpt lat="49.1082" lon="7.55852">
        <ele>345</ele>
        <time>2020-08-05T10:39:43.000Z</time>
      </trkpt>
      <trkpt lat="49.10843" lon="7.55956">
        <ele>339</ele>
        <time>2020-08-05T10:37:19.000Z</time>
      </trkpt>
      <trkpt lat="49.10863" lon="7.56012">
        <ele>332</ele>
        <time>2020-08-05T10:35:19.000Z</time>
      </trkpt>
      <trkpt lat="49.10864" lon="7.56011">
        <ele>333</ele>
        <time>2020-08-05T10:35:25.000Z</time>
      </trkpt>
      <trkpt lat="49.10888" lon="7.56056">
        <ele>330</ele>
        <time>2020-08-05T10:34:11.000Z</time>
      </trkpt>
      <trkpt lat="49.10895" lon="7.56062">
        <ele>330</ele>
        <time>2020-08-05T10:34:02.000Z</time>
      </trkpt>
      <trkpt lat="49.10926" lon="7.56061">
        <ele>327</ele>
        <time>2020-08-05T10:32:55.000Z</time>
      </trkpt>
      <trkpt lat="49.10926" lon="7.56061">
        <ele>327</ele>
        <time>2020-08-05T10:32:55.000Z</time>
      </trkpt>
      <trkpt lat="49.10955" lon="7.56077">
        <ele>325</ele>
        <time>2020-08-05T10:32:00.000Z</time>
      </trkpt>
      <trkpt lat="49.1096" lon="7.56085">
        <ele>323</ele>
        <time>2020-08-05T10:31:31.000Z</time>
      </trkpt>
      <trkpt lat="49.10971" lon="7.56123">
        <ele>320</ele>
        <time>2020-08-05T10:30:29.000Z</time>
      </trkpt>
      <trkpt lat="49.10993" lon="7.56163">
        <ele>316</ele>
        <time>2020-08-05T10:29:09.000Z</time>
      </trkpt>
      <trkpt lat="49.1101" lon="7.56176">
        <ele>315</ele>
        <time>2020-08-05T10:28:37.000Z</time>
      </trkpt>
      <trkpt lat="49.11042" lon="7.56176">
        <ele>312</ele>
        <time>2020-08-05T10:27:30.000Z</time>
      </trkpt>
      <trkpt lat="49.11054" lon="7.56179">
        <ele>311</ele>
        <time>2020-08-05T10:27:06.000Z</time>
      </trkpt>
      <trkpt lat="49.11062" lon="7.56187">
        <ele>311</ele>
        <time>2020-08-05T10:26:55.000Z</time>
      </trkpt>
      <trkpt lat="49.11075" lon="7.56208">
        <ele>308</ele>
        <time>2020-08-05T10:26:02.000Z</time>
      </trkpt>
      <trkpt lat="49.11087" lon="7.56238">
        <ele>307</ele>
        <time>2020-08-05T10:25:26.000Z</time>
      </trkpt>
      <trkpt lat="49.11087" lon="7.56238">
        <ele>306</ele>
        <time>2020-08-05T10:25:15.000Z</time>
      </trkpt>
      <trkpt lat="49.11087" lon="7.56238">
        <ele>307</ele>
        <time>2020-08-05T10:25:17.000Z</time>
      </trkpt>
      <trkpt lat="49.11077" lon="7.56234">
        <ele>306</ele>
        <time>2020-08-05T10:24:54.000Z</time>
      </trkpt>
      <trkpt lat="49.1107" lon="7.56235">
        <ele>306</ele>
        <time>2020-08-05T10:24:46.000Z</time>
      </trkpt>
      <trkpt lat="49.1107" lon="7.56235">
        <ele>306</ele>
        <time>2020-08-05T10:24:46.000Z</time>
      </trkpt>
      <trkpt lat="49.11051" lon="7.56244">
        <ele>306</ele>
        <time>2020-08-05T10:24:24.000Z</time>
      </trkpt>
      <trkpt lat="49.11029" lon="7.56265">
        <ele>308</ele>
        <time>2020-08-05T10:23:53.000Z</time>
      </trkpt>
      <trkpt lat="49.11007" lon="7.56275">
        <ele>308</ele>
        <time>2020-08-05T10:23:27.000Z</time>
      </trkpt>
      <trkpt lat="49.10991" lon="7.5627">
        <ele>308</ele>
        <time>2020-08-05T10:23:08.000Z</time>
      </trkpt>
      <trkpt lat="49.10942" lon="7.56234">
        <ele>304</ele>
        <time>2020-08-05T10:21:25.000Z</time>
      </trkpt>
      <trkpt lat="49.10916" lon="7.56229">
        <ele>303</ele>
        <time>2020-08-05T10:20:44.000Z</time>
      </trkpt>
      <trkpt lat="49.10908" lon="7.56235">
        <ele>304</ele>
        <time>2020-08-05T10:20:33.000Z</time>
      </trkpt>
      <trkpt lat="49.10907" lon="7.56236">
        <ele>304</ele>
        <time>2020-08-05T10:20:32.000Z</time>
      </trkpt>
      <trkpt lat="49.10919" lon="7.56296">
        <ele>304</ele>
        <time>2020-08-05T10:19:34.000Z</time>
      </trkpt>
      <trkpt lat="49.10924" lon="7.56346">
        <ele>317</ele>
        <time>2020-08-05T10:18:56.000Z</time>
      </trkpt>
      <trkpt lat="49.10921" lon="7.56363">
        <ele>314</ele>
        <time>2020-08-05T10:18:12.000Z</time>
      </trkpt>
      <trkpt lat="49.10908" lon="7.56386">
        <ele>311</ele>
        <time>2020-08-05T10:17:19.000Z</time>
      </trkpt>
      <trkpt lat="49.10883" lon="7.5641">
        <ele>308</ele>
        <time>2020-08-05T10:16:14.000Z</time>
      </trkpt>
      <trkpt lat="49.1087" lon="7.5643">
        <ele>307</ele>
        <time>2020-08-05T10:15:42.000Z</time>
      </trkpt>
      <trkpt lat="49.10848" lon="7.56485">
        <ele>306</ele>
        <time>2020-08-05T10:14:33.000Z</time>
      </trkpt>
      <trkpt lat="49.10843" lon="7.56511">
        <ele>301</ele>
        <time>2020-08-05T10:13:21.000Z</time>
      </trkpt>
      <trkpt lat="49.10825" lon="7.56544">
        <ele>300</ele>
        <time>2020-08-05T10:12:38.000Z</time>
      </trkpt>
      <trkpt lat="49.10787" lon="7.56655">
        <ele>292</ele>
        <time>2020-08-05T10:09:43.000Z</time>
      </trkpt>
      <trkpt lat="49.10766" lon="7.56671">
        <ele>290</ele>
        <time>2020-08-05T10:08:55.000Z</time>
      </trkpt>
      <trkpt lat="49.10722" lon="7.56607">
        <ele>297</ele>
        <time>2020-08-05T10:07:46.000Z</time>
      </trkpt>
      <trkpt lat="49.10718" lon="7.56645">
        <ele>294</ele>
        <time>2020-08-05T10:06:47.000Z</time>
      </trkpt>
      <trkpt lat="49.10701" lon="7.56684">
        <ele>299</ele>
        <time>2020-08-05T10:06:12.000Z</time>
      </trkpt>
      <trkpt lat="49.10725" lon="7.56738">
        <ele>299</ele>
        <time>2020-08-05T10:05:23.000Z</time>
      </trkpt>
      <trkpt lat="49.10745" lon="7.56785">
        <ele>292</ele>
        <time>2020-08-05T10:03:29.000Z</time>
      </trkpt>
      <trkpt lat="49.10703" lon="7.56963">
        <ele>295</ele>
        <time>2020-08-05T10:00:57.000Z</time>
      </trkpt>
      <trkpt lat="49.10692" lon="7.56987">
        <ele>294</ele>
        <time>2020-08-05T10:00:24.000Z</time>
      </trkpt>
      <trkpt lat="49.10677" lon="7.56999">
        <ele>295</ele>
        <time>2020-08-05T10:00:04.000Z</time>
      </trkpt>
      <trkpt lat="49.10683" lon="7.57063">
        <ele>288</ele>
        <time>2020-08-05T09:58:03.000Z</time>
      </trkpt>
      <trkpt lat="49.10691" lon="7.57114">
        <ele>288</ele>
        <time>2020-08-05T09:57:23.000Z</time>
      </trkpt>
      <trkpt lat="49.10689" lon="7.57163">
        <ele>292</ele>
        <time>2020-08-05T09:56:46.000Z</time>
      </trkpt>
      <trkpt lat="49.10681" lon="7.57179">
        <ele>292</ele>
        <time>2020-08-05T09:56:31.000Z</time>
      </trkpt>
      <trkpt lat="49.1067" lon="7.57189">
        <ele>291</ele>
        <time>2020-08-05T09:56:06.000Z</time>
      </trkpt>
      <trkpt lat="49.1066" lon="7.57191">
        <ele>291</ele>
        <time>2020-08-05T09:55:55.000Z</time>
      </trkpt>
      <trkpt lat="49.1061" lon="7.5717">
        <ele>291</ele>
        <time>2020-08-05T09:54:45.000Z</time>
      </trkpt>
      <trkpt lat="49.10524" lon="7.57204">
        <ele>298</ele>
        <time>2020-08-05T09:53:02.000Z</time>
      </trkpt>
      <trkpt lat="49.1057" lon="7.57297">
        <ele>294</ele>
        <time>2020-08-05T09:50:42.000Z</time>
      </trkpt>
      <trkpt lat="49.10583" lon="7.57305">
        <ele>291</ele>
        <time>2020-08-05T09:49:56.000Z</time>
      </trkpt>
      <trkpt lat="49.1063" lon="7.5736">
        <ele>288</ele>
        <time>2020-08-05T09:48:17.000Z</time>
      </trkpt>
      <trkpt lat="49.10688" lon="7.57378">
        <ele>289</ele>
        <time>2020-08-05T09:46:59.000Z</time>
      </trkpt>
      <trkpt lat="49.10728" lon="7.57378">
        <ele>293</ele>
        <time>2020-08-05T09:46:13.000Z</time>
      </trkpt>
      <trkpt lat="49.10666" lon="7.57467">
        <ele>292</ele>
        <time>2020-08-05T09:44:25.000Z</time>
      </trkpt>
      <trkpt lat="49.10643" lon="7.57521">
        <ele>296</ele>
        <time>2020-08-05T09:43:37.000Z</time>
      </trkpt>
      <trkpt lat="49.10636" lon="7.57545">
        <ele>297</ele>
        <time>2020-08-05T09:43:18.000Z</time>
      </trkpt>
      <trkpt lat="49.10624" lon="7.57676">
        <ele>296</ele>
        <time>2020-08-05T09:41:28.000Z</time>
      </trkpt>
      <trkpt lat="49.10698" lon="7.57827">
        <ele>304</ele>
        <time>2020-08-05T09:39:06.000Z</time>
      </trkpt>
      <trkpt lat="49.10779" lon="7.58046">
        <ele>326</ele>
        <time>2020-08-05T09:35:57.000Z</time>
      </trkpt>
      <trkpt lat="49.10837" lon="7.58166">
        <ele>342</ele>
        <time>2020-08-05T09:34:05.000Z</time>
      </trkpt>
      <trkpt lat="49.10857" lon="7.58229">
        <ele>351</ele>
        <time>2020-08-05T09:33:13.000Z</time>
      </trkpt>
      <trkpt lat="49.1088" lon="7.58278">
        <ele>354</ele>
        <time>2020-08-05T09:32:27.000Z</time>
      </trkpt>
      <trkpt lat="49.10864" lon="7.58291">
        <ele>355</ele>
        <time>2020-08-05T09:32:06.000Z</time>
      </trkpt>
      <trkpt lat="49.1083" lon="7.58301">
        <ele>358</ele>
        <time>2020-08-05T09:31:25.000Z</time>
      </trkpt>
      <trkpt lat="49.10762" lon="7.58315">
        <ele>355</ele>
        <time>2020-08-05T09:29:36.000Z</time>
      </trkpt>
      <trkpt lat="49.10752" lon="7.58327">
        <ele>355</ele>
        <time>2020-08-05T09:29:21.000Z</time>
      </trkpt>
      <trkpt lat="49.10735" lon="7.58405">
        <ele>356</ele>
        <time>2020-08-05T09:28:20.000Z</time>
      </trkpt>
      <trkpt lat="49.10739" lon="7.58441">
        <ele>355</ele>
        <time>2020-08-05T09:27:42.000Z</time>
      </trkpt>
      <trkpt lat="49.10751" lon="7.5849">
        <ele>357</ele>
        <time>2020-08-05T09:27:03.000Z</time>
      </trkpt>
      <trkpt lat="49.10766" lon="7.58527">
        <ele>358</ele>
        <time>2020-08-05T09:26:31.000Z</time>
      </trkpt>
      <trkpt lat="49.10816" lon="7.58699">
        <ele>355</ele>
        <time>2020-08-05T09:23:39.000Z</time>
      </trkpt>
      <trkpt lat="49.10842" lon="7.58753">
        <ele>354</ele>
        <time>2020-08-05T09:22:39.000Z</time>
      </trkpt>
      <trkpt lat="49.10849" lon="7.58777">
        <ele>354</ele>
        <time>2020-08-05T09:22:19.000Z</time>
      </trkpt>
      <trkpt lat="49.10895" lon="7.58874">
        <ele>360</ele>
        <time>2020-08-05T09:20:49.000Z</time>
      </trkpt>
      <trkpt lat="49.10925" lon="7.58924">
        <ele>364</ele>
        <time>2020-08-05T09:19:58.000Z</time>
      </trkpt>
      <trkpt lat="49.1094" lon="7.58936">
        <ele>364</ele>
        <time>2020-08-05T09:19:39.000Z</time>
      </trkpt>
      <trkpt lat="49.10974" lon="7.5893">
        <ele>363</ele>
        <time>2020-08-05T09:18:49.000Z</time>
      </trkpt>
      <trkpt lat="49.10988" lon="7.58863">
        <ele>367</ele>
        <time>2020-08-05T09:17:55.000Z</time>
      </trkpt>
      <trkpt lat="49.10988" lon="7.58829">
        <ele>371</ele>
        <time>2020-08-05T09:17:30.000Z</time>
      </trkpt>
      <trkpt lat="49.10976" lon="7.58754">
        <ele>380</ele>
        <time>2020-08-05T09:16:32.000Z</time>
      </trkpt>
      <trkpt lat="49.10979" lon="7.58699">
        <ele>389</ele>
        <time>2020-08-05T09:15:50.000Z</time>
      </trkpt>
      <trkpt lat="49.10974" lon="7.58694">
        <ele>390</ele>
        <time>2020-08-05T09:15:43.000Z</time>
      </trkpt>
      <trkpt lat="49.10982" lon="7.58682">
        <ele>391</ele>
        <time>2020-08-05T09:15:30.000Z</time>
      </trkpt>
      <trkpt lat="49.10973" lon="7.58682">
        <ele>393</ele>
        <time>2020-08-05T09:03:42.000Z</time>
      </trkpt>
      <trkpt lat="49.10977" lon="7.58665">
        <ele>395</ele>
        <time>2020-08-05T09:03:28.000Z</time>
      </trkpt>
      <trkpt lat="49.10968" lon="7.58658">
        <ele>397</ele>
        <time>2020-08-05T09:03:17.000Z</time>
      </trkpt>
      <trkpt lat="49.1097" lon="7.5865">
        <ele>399</ele>
        <time>2020-08-05T09:03:09.000Z</time>
      </trkpt>
      <trkpt lat="49.10964" lon="7.58651">
        <ele>397</ele>
        <time>2020-08-05T09:05:50.000Z</time>
      </trkpt>
      <trkpt lat="49.10964" lon="7.58637">
        <ele>400</ele>
        <time>2020-08-05T09:05:39.000Z</time>
      </trkpt>
      <trkpt lat="49.10967" lon="7.58635">
        <ele>401</ele>
        <time>2020-08-05T09:05:35.000Z</time>
      </trkpt>
      <trkpt lat="49.10953" lon="7.58578">
        <ele>403</ele>
        <time>2020-08-05T09:04:49.000Z</time>
      </trkpt>
      <trkpt lat="49.10942" lon="7.58556">
        <ele>403</ele>
        <time>2020-08-05T09:04:28.000Z</time>
      </trkpt>
      <trkpt lat="49.10901" lon="7.58525">
        <ele>389</ele>
        <time>2020-08-05T09:01:12.000Z</time>
      </trkpt>
      <trkpt lat="49.10898" lon="7.58514">
        <ele>388</ele>
        <time>2020-08-05T09:00:52.000Z</time>
      </trkpt>
      <trkpt lat="49.10913" lon="7.58521">
        <ele>392</ele>
        <time>2020-08-05T09:00:34.000Z</time>
      </trkpt>
      <trkpt lat="49.10931" lon="7.5852">
        <ele>396</ele>
        <time>2020-08-05T09:00:13.000Z</time>
      </trkpt>
      <trkpt lat="49.10949" lon="7.58508">
        <ele>397</ele>
        <time>2020-08-05T08:59:50.000Z</time>
      </trkpt>
      <trkpt lat="49.10966" lon="7.58466">
        <ele>389</ele>
        <time>2020-08-05T08:57:50.000Z</time>
      </trkpt>
      <trkpt lat="49.10983" lon="7.58405">
        <ele>382</ele>
        <time>2020-08-05T08:55:49.000Z</time>
      </trkpt>
      <trkpt lat="49.11006" lon="7.58306">
        <ele>384</ele>
        <time>2020-08-05T08:54:30.000Z</time>
      </trkpt>
      <trkpt lat="49.11024" lon="7.58206">
        <ele>373</ele>
        <time>2020-08-05T08:51:19.000Z</time>
      </trkpt>
      <trkpt lat="49.11029" lon="7.58127">
        <ele>358</ele>
        <time>2020-08-05T08:47:44.000Z</time>
      </trkpt>
      <trkpt lat="49.11025" lon="7.58027">
        <ele>348</ele>
        <time>2020-08-05T08:44:45.000Z</time>
      </trkpt>
      <trkpt lat="49.11034" lon="7.5795">
        <ele>342</ele>
        <time>2020-08-05T08:42:44.000Z</time>
      </trkpt>
      <trkpt lat="49.11058" lon="7.57965">
        <ele>342</ele>
        <time>2020-08-05T08:42:14.000Z</time>
      </trkpt>
      <trkpt lat="49.11075" lon="7.57984">
        <ele>341</ele>
        <time>2020-08-05T08:41:40.000Z</time>
      </trkpt>
      <trkpt lat="49.11125" lon="7.58061">
        <ele>339</ele>
        <time>2020-08-05T08:39:58.000Z</time>
      </trkpt>
      <trkpt lat="49.11146" lon="7.58102">
        <ele>340</ele>
        <time>2020-08-05T08:39:19.000Z</time>
      </trkpt>
      <trkpt lat="49.11152" lon="7.5814">
        <ele>343</ele>
        <time>2020-08-05T08:38:50.000Z</time>
      </trkpt>
      <trkpt lat="49.11177" lon="7.58138">
        <ele>343</ele>
        <time>2020-08-05T08:38:21.000Z</time>
      </trkpt>
      <trkpt lat="49.11198" lon="7.58119">
        <ele>341</ele>
        <time>2020-08-05T08:37:33.000Z</time>
      </trkpt>
      <trkpt lat="49.11266" lon="7.58104">
        <ele>338</ele>
        <time>2020-08-05T08:35:44.000Z</time>
      </trkpt>
      <trkpt lat="49.11301" lon="7.5807">
        <ele>335</ele>
        <time>2020-08-05T08:34:26.000Z</time>
      </trkpt>
      <trkpt lat="49.11334" lon="7.5805">
        <ele>334</ele>
        <time>2020-08-05T08:33:34.000Z</time>
      </trkpt>
      <trkpt lat="49.11361" lon="7.58017">
        <ele>336</ele>
        <time>2020-08-05T08:32:55.000Z</time>
      </trkpt>
      <trkpt lat="49.11375" lon="7.57993">
        <ele>338</ele>
        <time>2020-08-05T08:32:31.000Z</time>
      </trkpt>
      <trkpt lat="49.11384" lon="7.57959">
        <ele>340</ele>
        <time>2020-08-05T08:32:04.000Z</time>
      </trkpt>
      <trkpt lat="49.11392" lon="7.57904">
        <ele>343</ele>
        <time>2020-08-05T08:31:22.000Z</time>
      </trkpt>
      <trkpt lat="49.11394" lon="7.57832">
        <ele>342</ele>
        <time>2020-08-05T08:30:17.000Z</time>
      </trkpt>
      <trkpt lat="49.11407" lon="7.57778">
        <ele>340</ele>
        <time>2020-08-05T08:29:14.000Z</time>
      </trkpt>
      <trkpt lat="49.11439" lon="7.57736">
        <ele>338</ele>
        <time>2020-08-05T08:28:05.000Z</time>
      </trkpt>
      <trkpt lat="49.11399" lon="7.57587">
        <ele>330</ele>
        <time>2020-08-05T08:24:42.000Z</time>
      </trkpt>
      <trkpt lat="49.11417" lon="7.57422">
        <ele>330</ele>
        <time>2020-08-05T08:22:37.000Z</time>
      </trkpt>
      <trkpt lat="49.11438" lon="7.57333">
        <ele>322</ele>
        <time>2020-08-05T08:20:04.000Z</time>
      </trkpt>
      <trkpt lat="49.11458" lon="7.57235">
        <ele>320</ele>
        <time>2020-08-05T08:18:27.000Z</time>
      </trkpt>
      <trkpt lat="49.11475" lon="7.57078">
        <ele>317</ele>
        <time>2020-08-05T08:15:57.000Z</time>
      </trkpt>
      <trkpt lat="49.11471" lon="7.57046">
        <ele>317</ele>
        <time>2020-08-05T08:15:33.000Z</time>
      </trkpt>
      <trkpt lat="49.11482" lon="7.56879">
        <ele>317</ele>
        <time>2020-08-05T08:13:27.000Z</time>
      </trkpt>
      <trkpt lat="49.11476" lon="7.56759">
        <ele>316</ele>
        <time>2020-08-05T08:11:46.000Z</time>
      </trkpt>
      <trkpt lat="49.1148" lon="7.56645">
        <ele>314</ele>
        <time>2020-08-05T08:10:00.000Z</time>
      </trkpt>
      <trkpt lat="49.11491" lon="7.56573">
        <ele>313</ele>
        <time>2020-08-05T08:08:54.000Z</time>
      </trkpt>
      <trkpt lat="49.11506" lon="7.56495">
        <ele>309</ele>
        <time>2020-08-05T08:07:12.000Z</time>
      </trkpt>
      <trkpt lat="49.11541" lon="7.56361">
        <ele>303</ele>
        <time>2020-08-05T08:04:22.000Z</time>
      </trkpt>
      <trkpt lat="49.11561" lon="7.56304">
        <ele>300</ele>
        <time>2020-08-05T08:03:03.000Z</time>
      </trkpt>
      <trkpt lat="49.11598" lon="7.56235">
        <ele>295</ele>
        <time>2020-08-05T08:01:04.000Z</time>
      </trkpt>
      <trkpt lat="49.11587" lon="7.56185">
        <ele>292</ele>
        <time>2020-08-05T07:59:53.000Z</time>
      </trkpt>
      <trkpt lat="49.11572" lon="7.5604">
        <ele>285</ele>
        <time>2020-08-05T07:56:51.000Z</time>
      </trkpt>
      <trkpt lat="49.11591" lon="7.55996">
        <ele>282</ele>
        <time>2020-08-05T07:55:41.000Z</time>
      </trkpt>
      <trkpt lat="49.11567" lon="7.55967">
        <ele>282</ele>
        <time>2020-08-05T07:55:06.000Z</time>
      </trkpt>
      <trkpt lat="49.11588" lon="7.55906">
        <ele>280</ele>
        <time>2020-08-05T07:53:55.000Z</time>
      </trkpt>
      <trkpt lat="49.11536" lon="7.55848">
        <ele>279</ele>
        <time>2020-08-05T07:52:31.000Z</time>
      </trkpt>
      <trkpt lat="49.11535" lon="7.55831">
        <ele>279</ele>
        <time>2020-08-05T07:52:18.000Z</time>
      </trkpt>
      <trkpt lat="49.11552" lon="7.55819">
        <ele>280</ele>
        <time>2020-08-05T07:51:56.000Z</time>
      </trkpt>
      <trkpt lat="49.11557" lon="7.558">
        <ele>280</ele>
        <time>2020-08-05T07:51:40.000Z</time>
      </trkpt>
      <trkpt lat="49.11564" lon="7.55792">
        <ele>280</ele>
        <time>2020-08-05T07:51:28.000Z</time>
      </trkpt>
      <trkpt lat="49.1155" lon="7.55681">
        <ele>277</ele>
        <time>2020-08-05T07:49:32.000Z</time>
      </trkpt>
      <trkpt lat="49.11552" lon="7.55519">
        <ele>277</ele>
        <time>2020-08-05T07:47:31.000Z</time>
      </trkpt>
      <trkpt lat="49.115" lon="7.55509">
        <ele>278</ele>
        <time>2020-08-05T12:17:17.000Z</time>
      </trkpt>
      <trkpt lat="49.11503" lon="7.55507">
        <ele>278</ele>
        <time>2020-08-05T12:18:59.000Z</time>
      </trkpt>
      <trkpt lat="49.11498" lon="7.55509">
        <ele>278</ele>
        <time>2020-08-05T12:18:53.000Z</time>
      </trkpt>
      <trkpt lat="49.11453" lon="7.55494">
        <ele>280</ele>
        <time>2020-08-05T12:18:01.000Z</time>
      </trkpt>
      <trkpt lat="49.11468" lon="7.55447">
        <ele>279</ele>
        <time>2020-08-05T12:17:12.000Z</time>
      </trkpt>
      <trkpt lat="49.11351" lon="7.55445">
        <ele>293</ele>
        <time>2020-08-05T12:14:58.000Z</time>
      </trkpt>
      <trkpt lat="49.11338" lon="7.55436">
        <ele>286</ele>
        <time>2020-08-05T12:13:30.000Z</time>
      </trkpt>
      <trkpt lat="49.11338" lon="7.55436">
        <ele>286</ele>
        <time>2020-08-05T12:13:30.000Z</time>
      </trkpt>
      <trkpt lat="49.11247" lon="7.55287">
        <ele>297</ele>
        <time>2020-08-05T12:10:57.000Z</time>
      </trkpt>
      <trkpt lat="49.1118" lon="7.55218">
        <ele>303</ele>
        <time>2020-08-05T12:09:24.000Z</time>
      </trkpt>
      <trkpt lat="49.11134" lon="7.55211">
        <ele>307</ele>
        <time>2020-08-05T12:08:31.000Z</time>
      </trkpt>
      <trkpt lat="49.11121" lon="7.55201">
        <ele>308</ele>
        <time>2020-08-05T12:08:14.000Z</time>
      </trkpt>
      <trkpt lat="49.11112" lon="7.55189">
        <ele>307</ele>
        <time>2020-08-05T12:07:51.000Z</time>
      </trkpt>
      <trkpt lat="49.11114" lon="7.55193">
        <ele>308</ele>
        <time>2020-08-05T12:07:48.000Z</time>
      </trkpt>
      <trkpt lat="49.11108" lon="7.55156">
        <ele>309</ele>
        <time>2020-08-05T12:07:20.000Z</time>
      </trkpt>
      <trkpt lat="49.11137" lon="7.55003">
        <ele>312</ele>
        <time>2020-08-05T12:05:21.000Z</time>
      </trkpt>
      <trkpt lat="49.11153" lon="7.54985">
        <ele>319</ele>
        <time>2020-08-05T12:04:59.000Z</time>
      </trkpt>
      <trkpt lat="49.11176" lon="7.55008">
        <ele>317</ele>
        <time>2020-08-05T12:04:08.000Z</time>
      </trkpt>
      <trkpt lat="49.11248" lon="7.55054">
        <ele>326</ele>
        <time>2020-08-05T12:02:38.000Z</time>
      </trkpt>
      <trkpt lat="49.11299" lon="7.55111">
        <ele>329</ele>
        <time>2020-08-05T12:01:26.000Z</time>
      </trkpt>
      <trkpt lat="49.11315" lon="7.55123">
        <ele>330</ele>
        <time>2020-08-05T12:01:06.000Z</time>
      </trkpt>
      <trkpt lat="49.11322" lon="7.55103">
        <ele>329</ele>
        <time>2020-08-05T12:00:39.000Z</time>
      </trkpt>
      <trkpt lat="49.11337" lon="7.54903">
        <ele>331</ele>
        <time>2020-08-05T11:58:08.000Z</time>
      </trkpt>
      <trkpt lat="49.11327" lon="7.54837">
        <ele>332</ele>
        <time>2020-08-05T11:57:17.000Z</time>
      </trkpt>
      <trkpt lat="49.11294" lon="7.54751">
        <ele>337</ele>
        <time>2020-08-05T11:56:02.000Z</time>
      </trkpt>
      <trkpt lat="49.11248" lon="7.54609">
        <ele>339</ele>
        <time>2020-08-05T11:54:03.000Z</time>
      </trkpt>
      <trkpt lat="49.11235" lon="7.54439">
        <ele>335</ele>
        <time>2020-08-05T11:51:14.000Z</time>
      </trkpt>
      <trkpt lat="49.11242" lon="7.54407">
        <ele>336</ele>
        <time>2020-08-05T11:50:49.000Z</time>
      </trkpt>
      <trkpt lat="49.11261" lon="7.54392">
        <ele>342</ele>
        <time>2020-08-05T11:50:25.000Z</time>
      </trkpt>
      <trkpt lat="49.11332" lon="7.54428">
        <ele>336</ele>
        <time>2020-08-05T11:47:57.000Z</time>
      </trkpt>
      <trkpt lat="49.11398" lon="7.54464">
        <ele>348</ele>
        <time>2020-08-05T11:46:37.000Z</time>
      </trkpt>
      <trkpt lat="49.11415" lon="7.54476">
        <ele>343</ele>
        <time>2020-08-05T11:45:25.000Z</time>
      </trkpt>
      <trkpt lat="49.11441" lon="7.54469">
        <ele>342</ele>
        <time>2020-08-05T11:44:44.000Z</time>
      </trkpt>
      <trkpt lat="49.11441" lon="7.54469">
        <ele>342</ele>
        <time>2020-08-05T11:44:34.000Z</time>
      </trkpt>
      <trkpt lat="49.1145" lon="7.54441">
        <ele>342</ele>
        <time>2020-08-05T11:44:10.000Z</time>
      </trkpt>
      <trkpt lat="49.11446" lon="7.54337">
        <ele>340</ele>
        <time>2020-08-05T11:42:32.000Z</time>
      </trkpt>
      <trkpt lat="49.11456" lon="7.54276">
        <ele>341</ele>
        <time>2020-08-05T11:41:45.000Z</time>
      </trkpt>
      <trkpt lat="49.11489" lon="7.54166">
        <ele>345</ele>
        <time>2020-08-05T11:40:15.000Z</time>
      </trkpt>
      <trkpt lat="49.11498" lon="7.54173">
        <ele>344</ele>
        <time>2020-08-05T11:39:53.000Z</time>
      </trkpt>
      <trkpt lat="49.11507" lon="7.54167">
        <ele>344</ele>
        <time>2020-08-05T11:39:42.000Z</time>
      </trkpt>
      <trkpt lat="49.11507" lon="7.54167">
        <ele>344</ele>
        <time>2020-08-05T11:39:42.000Z</time>
      </trkpt>
      <trkpt lat="49.11518" lon="7.54159">
        <ele>344</ele>
        <time>2020-08-05T11:39:28.000Z</time>
      </trkpt>
      <trkpt lat="49.11535" lon="7.54161">
        <ele>343</ele>
        <time>2020-08-05T11:38:58.000Z</time>
      </trkpt>
      <trkpt lat="49.11535" lon="7.5416">
        <ele>343</ele>
        <time>2020-08-05T11:38:57.000Z</time>
      </trkpt>
      <trkpt lat="49.11597" lon="7.54233">
        <ele>352</ele>
        <time>2020-08-05T11:37:27.000Z</time>
      </trkpt>
      <trkpt lat="49.1161" lon="7.54231">
        <ele>348</ele>
        <time>2020-08-05T11:36:31.000Z</time>
      </trkpt>
      <trkpt lat="49.11613" lon="7.54249">
        <ele>351</ele>
        <time>2020-08-05T11:36:17.000Z</time>
      </trkpt>
      <trkpt lat="49.11667" lon="7.54305">
        <ele>349</ele>
        <time>2020-08-05T11:34:42.000Z</time>
      </trkpt>
      <trkpt lat="49.117" lon="7.54384">
        <ele>352</ele>
        <time>2020-08-05T11:33:32.000Z</time>
      </trkpt>
      <trkpt lat="49.1173" lon="7.5448">
        <ele>350</ele>
        <time>2020-08-05T11:31:53.000Z</time>
      </trkpt>
      <trkpt lat="49.11726" lon="7.5451">
        <ele>349</ele>
        <time>2020-08-05T11:31:19.000Z</time>
      </trkpt>
      <trkpt lat="49.11714" lon="7.54511">
        <ele>350</ele>
        <time>2020-08-05T11:31:06.000Z</time>
      </trkpt>
      <trkpt lat="49.11721" lon="7.54532">
        <ele>348</ele>
        <time>2020-08-05T11:30:28.000Z</time>
      </trkpt>
      <trkpt lat="49.11701" lon="7.54668">
        <ele>329</ele>
        <time>2020-08-05T11:25:28.000Z</time>
      </trkpt>
      <trkpt lat="49.11726" lon="7.54689">
        <ele>329</ele>
        <time>2020-08-05T11:24:56.000Z</time>
      </trkpt>
      <trkpt lat="49.11738" lon="7.54692">
        <ele>328</ele>
        <time>2020-08-05T11:24:31.000Z</time>
      </trkpt>
      <trkpt lat="49.11752" lon="7.54676">
        <ele>327</ele>
        <time>2020-08-05T11:24:01.000Z</time>
      </trkpt>
      <trkpt lat="49.11793" lon="7.54581">
        <ele>322</ele>
        <time>2020-08-05T11:21:44.000Z</time>
      </trkpt>
      <trkpt lat="49.11809" lon="7.54527">
        <ele>323</ele>
        <time>2020-08-05T11:21:00.000Z</time>
      </trkpt>
      <trkpt lat="49.11849" lon="7.54443">
        <ele>319</ele>
        <time>2020-08-05T11:19:00.000Z</time>
      </trkpt>
      <trkpt lat="49.11851" lon="7.54416">
        <ele>320</ele>
        <time>2020-08-05T11:18:40.000Z</time>
      </trkpt>
      <trkpt lat="49.11804" lon="7.54267">
        <ele>319</ele>
        <time>2020-08-05T11:16:25.000Z</time>
      </trkpt>
      <trkpt lat="49.11803" lon="7.54221">
        <ele>317</ele>
        <time>2020-08-05T11:15:30.000Z</time>
      </trkpt>
      <trkpt lat="49.11818" lon="7.54218">
        <ele>316</ele>
        <time>2020-08-05T11:15:03.000Z</time>
      </trkpt>
      <trkpt lat="49.11918" lon="7.54285">
        <ele>307</ele>
        <time>2020-08-05T11:11:26.000Z</time>
      </trkpt>
      <trkpt lat="49.11962" lon="7.54322">
        <ele>298</ele>
        <time>2020-08-05T11:08:56.000Z</time>
      </trkpt>
      <trkpt lat="49.11983" lon="7.54365">
        <ele>291</ele>
        <time>2020-08-05T11:07:03.000Z</time>
      </trkpt>
      <trkpt lat="49.11987" lon="7.54398">
        <ele>288</ele>
        <time>2020-08-05T11:06:07.000Z</time>
      </trkpt>
      <trkpt lat="49.12017" lon="7.54377">
        <ele>286</ele>
        <time>2020-08-05T11:05:09.000Z</time>
      </trkpt>
      <trkpt lat="49.12023" lon="7.54344">
        <ele>288</ele>
        <time>2020-08-05T11:04:43.000Z</time>
      </trkpt>
      <trkpt lat="49.12016" lon="7.54303">
        <ele>292</ele>
        <time>2020-08-05T11:04:11.000Z</time>
      </trkpt>
      <trkpt lat="49.12005" lon="7.54277">
        <ele>295</ele>
        <time>2020-08-05T11:03:48.000Z</time>
      </trkpt>
      <trkpt lat="49.11952" lon="7.54188">
        <ele>296</ele>
        <time>2020-08-05T11:02:18.000Z</time>
      </trkpt>
      <trkpt lat="49.11912" lon="7.54098">
        <ele>295</ele>
        <time>2020-08-05T11:00:45.000Z</time>
      </trkpt>
      <trkpt lat="49.11898" lon="7.5408">
        <ele>296</ele>
        <time>2020-08-05T11:00:24.000Z</time>
      </trkpt>
      <trkpt lat="49.11874" lon="7.54071">
        <ele>296</ele>
        <time>2020-08-05T10:59:56.000Z</time>
      </trkpt>
      <trkpt lat="49.11835" lon="7.54022">
        <ele>297</ele>
        <time>2020-08-05T10:58:58.000Z</time>
      </trkpt>
      <trkpt lat="49.11832" lon="7.53949">
        <ele>307</ele>
        <time>2020-08-05T10:58:03.000Z</time>
      </trkpt>
      <trkpt lat="49.11811" lon="7.53968">
        <ele>303</ele>
        <time>2020-08-05T10:56:54.000Z</time>
      </trkpt>
      <trkpt lat="49.11745" lon="7.53954">
        <ele>303</ele>
        <time>2020-08-05T10:55:37.000Z</time>
      </trkpt>
      <trkpt lat="49.11719" lon="7.53961">
        <ele>302</ele>
        <time>2020-08-05T10:54:57.000Z</time>
      </trkpt>
      <trkpt lat="49.11721" lon="7.53998">
        <ele>303</ele>
        <time>2020-08-05T10:54:29.000Z</time>
      </trkpt>
      <trkpt lat="49.11662" lon="7.5394">
        <ele>306</ele>
        <time>2020-08-05T10:53:09.000Z</time>
      </trkpt>
      <trkpt lat="49.11605" lon="7.53872">
        <ele>309</ele>
        <time>2020-08-05T10:51:45.000Z</time>
      </trkpt>
      <trkpt lat="49.11492" lon="7.53728">
        <ele>298</ele>
        <time>2020-08-05T10:47:03.000Z</time>
      </trkpt>
      <trkpt lat="49.11434" lon="7.53688">
        <ele>304</ele>
        <time>2020-08-05T10:45:51.000Z</time>
      </trkpt>
      <trkpt lat="49.11384" lon="7.53673">
        <ele>291</ele>
        <time>2020-08-05T10:42:38.000Z</time>
      </trkpt>
      <trkpt lat="49.11287" lon="7.53609">
        <ele>293</ele>
        <time>2020-08-05T10:40:38.000Z</time>
      </trkpt>
      <trkpt lat="49.11212" lon="7.53576">
        <ele>294</ele>
        <time>2020-08-05T10:39:08.000Z</time>
      </trkpt>
      <trkpt lat="49.11212" lon="7.53578">
        <ele>294</ele>
        <time>2020-08-05T10:39:19.000Z</time>
      </trkpt>
      <trkpt lat="49.11158" lon="7.53559">
        <ele>298</ele>
        <time>2020-08-05T10:38:16.000Z</time>
      </trkpt>
      <trkpt lat="49.11074" lon="7.53553">
        <ele>297</ele>
        <time>2020-08-05T10:36:29.000Z</time>
      </trkpt>
      <trkpt lat="49.1103" lon="7.53566">
        <ele>300</ele>
        <time>2020-08-05T10:35:38.000Z</time>
      </trkpt>
      <trkpt lat="49.10971" lon="7.536">
        <ele>300</ele>
        <time>2020-08-05T10:34:25.000Z</time>
      </trkpt>
      <trkpt lat="49.10959" lon="7.53596">
        <ele>300</ele>
        <time>2020-08-05T10:34:12.000Z</time>
      </trkpt>
      <trkpt lat="49.10929" lon="7.53569">
        <ele>301</ele>
        <time>2020-08-05T10:33:32.000Z</time>
      </trkpt>
      <trkpt lat="49.10919" lon="7.53566">
        <ele>302</ele>
        <time>2020-08-05T10:33:20.000Z</time>
      </trkpt>
      <trkpt lat="49.10919" lon="7.53566">
        <ele>302</ele>
        <time>2020-08-05T10:33:20.000Z</time>
      </trkpt>
      <trkpt lat="49.10856" lon="7.53563">
        <ele>305</ele>
        <time>2020-08-05T10:32:08.000Z</time>
      </trkpt>
      <trkpt lat="49.10819" lon="7.53547">
        <ele>304</ele>
        <time>2020-08-05T10:31:15.000Z</time>
      </trkpt>
      <trkpt lat="49.10819" lon="7.53549">
        <ele>305</ele>
        <time>2020-08-05T10:31:14.000Z</time>
      </trkpt>
      <trkpt lat="49.10756" lon="7.53478">
        <ele>304</ele>
        <time>2020-08-05T10:29:34.000Z</time>
      </trkpt>
      <trkpt lat="49.1067" lon="7.5341">
        <ele>306</ele>
        <time>2020-08-05T10:27:44.000Z</time>
      </trkpt>
      <trkpt lat="49.10671" lon="7.53391">
        <ele>307</ele>
        <time>2020-08-05T10:27:29.000Z</time>
      </trkpt>
      <trkpt lat="49.10664" lon="7.5337">
        <ele>308</ele>
        <time>2020-08-05T10:27:11.000Z</time>
      </trkpt>
      <trkpt lat="49.10625" lon="7.53341">
        <ele>316</ele>
        <time>2020-08-05T10:26:22.000Z</time>
      </trkpt>
      <trkpt lat="49.10609" lon="7.53322">
        <ele>317</ele>
        <time>2020-08-05T10:25:59.000Z</time>
      </trkpt>
      <trkpt lat="49.10611" lon="7.5327">
        <ele>310</ele>
        <time>2020-08-05T10:24:08.000Z</time>
      </trkpt>
      <trkpt lat="49.1052" lon="7.53207">
        <ele>314</ele>
        <time>2020-08-05T10:22:14.000Z</time>
      </trkpt>
      <trkpt lat="49.10496" lon="7.5317">
        <ele>316</ele>
        <time>2020-08-05T10:21:35.000Z</time>
      </trkpt>
      <trkpt lat="49.10473" lon="7.53151">
        <ele>317</ele>
        <time>2020-08-05T10:21:05.000Z</time>
      </trkpt>
      <trkpt lat="49.10422" lon="7.5313">
        <ele>320</ele>
        <time>2020-08-05T10:20:04.000Z</time>
      </trkpt>
      <trkpt lat="49.10385" lon="7.531">
        <ele>321</ele>
        <time>2020-08-05T10:19:16.000Z</time>
      </trkpt>
      <trkpt lat="49.10365" lon="7.53096">
        <ele>322</ele>
        <time>2020-08-05T10:18:53.000Z</time>
      </trkpt>
      <trkpt lat="49.10345" lon="7.53117">
        <ele>324</ele>
        <time>2020-08-05T10:18:25.000Z</time>
      </trkpt>
      <trkpt lat="49.10308" lon="7.53087">
        <ele>325</ele>
        <time>2020-08-05T10:47:56.000Z</time>
      </trkpt>
      <trkpt lat="49.10234" lon="7.52991">
        <ele>332</ele>
        <time>2020-08-05T10:46:04.000Z</time>
      </trkpt>
      <trkpt lat="49.10189" lon="7.52891">
        <ele>335</ele>
        <time>2020-08-05T10:44:34.000Z</time>
      </trkpt>
      <trkpt lat="49.10164" lon="7.52857">
        <ele>336</ele>
        <time>2020-08-05T10:43:55.000Z</time>
      </trkpt>
      <trkpt lat="49.10099" lon="7.52684">
        <ele>331</ele>
        <time>2020-08-05T10:40:34.000Z</time>
      </trkpt>
      <trkpt lat="49.10084" lon="7.52631">
        <ele>329</ele>
        <time>2020-08-05T10:39:30.000Z</time>
      </trkpt>
      <trkpt lat="49.10055" lon="7.52469">
        <ele>325</ele>
        <time>2020-08-05T10:36:43.000Z</time>
      </trkpt>
      <trkpt lat="49.10045" lon="7.52386">
        <ele>324</ele>
        <time>2020-08-05T10:35:29.000Z</time>
      </trkpt>
      <trkpt lat="49.10025" lon="7.52173">
        <ele>319</ele>
        <time>2020-08-05T10:31:57.000Z</time>
      </trkpt>
      <trkpt lat="49.10003" lon="7.51809">
        <ele>309</ele>
        <time>2020-08-05T10:25:40.000Z</time>
      </trkpt>
      <trkpt lat="49.09994" lon="7.51729">
        <ele>307</ele>
        <time>2020-08-05T10:24:19.000Z</time>
      </trkpt>
      <trkpt lat="49.09999" lon="7.51668">
        <ele>306</ele>
        <time>2020-08-05T10:23:23.000Z</time>
      </trkpt>
      <trkpt lat="49.10022" lon="7.51598">
        <ele>305</ele>
        <time>2020-08-05T10:22:13.000Z</time>
      </trkpt>
    </trkseg>
  </trk>
</gpx>